createdAt,value
2018-04-14T00:01:27.109Z,10.63
2018-04-14T00:03:54.609Z,10.00
2018-04-14T00:06:22.117Z,10.57
2018-04-14T00:08:49.618Z,9.03
2018-04-14T00:11:17.950Z,11.23
2018-04-14T00:13:45.389Z,9.53
2018-04-14T00:16:12.914Z,8.07
2018-04-14T00:18:41.972Z,13.17
2018-04-14T00:21:09.513Z,12.87
2018-04-14T00:23:37.016Z,13.60
2018-04-14T00:26:04.529Z,13.03
2018-04-14T00:28:32.025Z,14.60
2018-04-14T00:30:59.562Z,12.83
2018-04-14T00:33:27.047Z,10.50
2018-04-14T00:35:54.564Z,16.43
2018-04-14T00:38:22.831Z,15.50
2018-04-14T00:40:50.329Z,11.23
2018-04-14T00:43:17.819Z,17.20
2018-04-14T00:45:45.351Z,13.60
2018-04-14T00:48:12.846Z,11.90
2018-04-14T00:50:40.500Z,11.03
2018-04-14T00:53:19.772Z,14.60
2018-04-14T00:55:47.274Z,13.60
2018-04-14T00:58:14.791Z,17.70
2018-04-14T01:00:42.319Z,15.53
2018-04-14T01:03:09.866Z,17.80
2018-04-14T01:05:37.374Z,17.40
2018-04-14T01:08:04.925Z,19.27
2018-04-14T01:10:32.419Z,13.57
2018-04-14T01:13:00.688Z,14.37
2018-04-14T01:15:28.295Z,18.73
2018-04-14T01:17:55.824Z,15.93
2018-04-14T01:20:23.328Z,15.30
2018-04-14T01:22:50.834Z,14.23
2018-04-14T01:25:18.346Z,17.40
2018-04-14T01:27:45.872Z,15.57
2018-04-14T01:30:13.494Z,15.43
2018-04-14T01:32:41.000Z,16.47
2018-04-14T01:35:08.482Z,15.13
2018-04-14T01:37:36.760Z,19.53
2018-04-14T01:40:04.276Z,15.50
2018-04-14T01:42:31.777Z,18.87
2018-04-14T01:44:59.302Z,18.57
2018-04-14T01:47:26.806Z,20.97
2018-04-14T01:49:54.317Z,21.20
2018-04-14T01:52:21.830Z,18.70
2018-04-14T01:54:49.352Z,19.30
2018-04-14T01:57:16.868Z,27.67
2018-04-14T01:59:44.353Z,24.37
2018-04-14T02:02:11.870Z,18.03
2018-04-14T02:04:39.378Z,20.20
2018-04-14T02:07:07.682Z,20.73
2018-04-14T02:09:35.183Z,20.37
2018-04-14T02:12:02.712Z,19.83
2018-04-14T02:14:30.219Z,17.73
2018-04-14T02:16:57.717Z,23.53
2018-04-14T02:19:25.221Z,26.40
2018-04-14T02:21:52.755Z,25.47
2018-04-14T02:24:20.272Z,22.27
2018-04-14T02:26:48.357Z,22.30
2018-04-14T02:29:16.651Z,27.27
2018-04-14T02:31:44.963Z,24.53
2018-04-14T02:34:12.596Z,24.80
2018-04-14T02:36:40.870Z,18.73
2018-04-14T02:39:09.148Z,20.07
2018-04-14T02:41:36.655Z,22.73
2018-04-14T02:44:04.180Z,25.03
2018-04-14T02:46:32.451Z,23.37
2018-04-14T02:49:00.068Z,21.00
2018-04-14T02:51:27.574Z,20.67
2018-04-14T02:53:56.682Z,22.00
2018-04-14T02:56:24.286Z,22.33
2018-04-14T02:58:51.870Z,20.20
2018-04-14T03:01:19.352Z,21.03
2018-04-14T03:03:47.089Z,24.10
2018-04-14T03:06:14.618Z,17.67
2018-04-14T03:08:42.890Z,19.57
2018-04-14T03:11:10.400Z,24.63
2018-04-14T03:13:38.063Z,22.57
2018-04-14T03:16:05.577Z,23.20
2018-04-14T03:18:33.128Z,22.73
2018-04-14T03:21:00.626Z,19.27
2018-04-14T03:23:28.893Z,20.30
2018-04-14T03:25:56.564Z,20.30
2018-04-14T03:28:24.843Z,30.47
2018-04-14T03:30:53.120Z,25.03
2018-04-14T03:33:21.391Z,25.90
2018-04-14T03:35:49.056Z,27.63
2018-04-14T03:38:16.579Z,24.77
2018-04-14T03:40:44.092Z,26.00
2018-04-14T03:43:11.588Z,23.37
2018-04-14T03:45:39.870Z,25.93
2018-04-14T03:48:07.399Z,24.43
2018-04-14T03:50:35.680Z,22.77
2018-04-14T03:53:03.201Z,21.60
2018-04-14T03:55:30.700Z,28.17
2018-04-14T03:57:58.985Z,21.60
2018-04-14T04:00:28.900Z,18.20
2018-04-14T04:02:57.893Z,19.30
2018-04-14T04:05:26.996Z,24.87
2018-04-14T04:07:54.611Z,21.90
2018-04-14T04:10:22.102Z,22.67
2018-04-14T04:12:49.621Z,28.23
2018-04-14T04:15:17.764Z,22.37
2018-04-14T04:17:46.027Z,27.80
2018-04-14T04:20:23.233Z,31.47
2018-04-14T04:23:03.473Z,26.30
2018-04-14T04:25:39.830Z,32.80
2018-04-14T04:28:07.394Z,28.80
2018-04-14T04:30:34.869Z,24.40
2018-04-14T04:33:02.370Z,31.20
2018-04-14T04:35:29.880Z,34.10
2018-04-14T04:37:57.554Z,32.77
2018-04-14T04:40:25.092Z,29.47
2018-04-14T04:42:52.580Z,28.73
2018-04-14T04:45:20.061Z,31.57
2018-04-14T04:47:49.660Z,25.80
2018-04-14T04:50:17.198Z,28.53
2018-04-14T04:52:44.796Z,39.17
2018-04-14T04:55:12.306Z,30.83
2018-04-14T04:57:40.306Z,27.23
2018-04-14T05:00:07.874Z,28.60
2018-04-14T05:02:35.401Z,28.90
2018-04-14T05:05:02.898Z,32.40
2018-04-14T05:07:30.404Z,35.57
2018-04-14T05:09:58.770Z,42.27
2018-04-14T05:12:26.507Z,37.10
2018-04-14T05:14:54.055Z,42.53
2018-04-14T05:17:22.389Z,39.53
2018-04-14T05:19:50.646Z,42.37
2018-04-14T05:22:18.158Z,39.27
2018-04-14T05:24:46.537Z,42.57
2018-04-14T05:27:14.819Z,52.97
2018-04-14T05:29:43.140Z,48.77
2018-04-14T05:32:10.648Z,55.30
2018-04-14T05:34:38.191Z,43.73
2018-04-14T05:37:05.776Z,56.33
2018-04-14T05:39:34.067Z,52.63
2018-04-14T05:42:02.870Z,47.20
2018-04-14T05:44:31.142Z,55.30
2018-04-14T05:46:59.401Z,50.67
2018-04-14T05:49:27.098Z,46.00
2018-04-14T05:51:55.612Z,51.40
2018-04-14T05:54:23.205Z,50.07
2018-04-14T05:56:50.734Z,50.63
2018-04-14T05:59:18.250Z,45.73
2018-04-14T06:01:47.245Z,58.57
2018-04-14T06:04:14.798Z,51.10
2018-04-14T06:06:42.450Z,46.67
2018-04-14T06:09:10.063Z,47.97
2018-04-14T06:11:37.540Z,46.33
2018-04-14T06:14:05.035Z,48.30
2018-04-14T06:16:32.560Z,45.87
2018-04-14T06:19:00.845Z,39.40
2018-04-14T06:21:29.137Z,39.97
2018-04-14T06:23:56.636Z,40.77
2018-04-14T06:26:24.159Z,57.83
2018-04-14T06:28:51.661Z,39.63
2018-04-14T06:31:19.262Z,44.10
2018-04-14T06:33:48.425Z,48.63
2018-04-14T06:36:15.904Z,33.33
2018-04-14T06:38:43.430Z,40.43
2018-04-14T06:41:11.028Z,46.20
2018-04-14T06:43:38.591Z,40.60
2018-04-14T06:46:06.098Z,42.03
2018-04-14T06:48:34.388Z,51.80
2018-04-14T06:51:01.891Z,49.97
2018-04-14T06:53:29.435Z,48.70
2018-04-14T06:55:56.932Z,56.03
2018-04-14T06:58:24.549Z,57.17
2018-04-14T07:00:52.099Z,54.03
2018-04-14T07:03:20.398Z,57.17
2018-04-14T07:05:47.907Z,57.57
2018-04-14T07:08:15.418Z,64.20
2018-04-14T07:10:42.934Z,65.03
2018-04-14T07:13:10.434Z,59.57
2018-04-14T07:15:38.069Z,62.27
2018-04-14T07:18:05.636Z,69.77
2018-04-14T07:20:36.008Z,65.80
2018-04-14T07:23:04.356Z,65.43
2018-04-14T07:25:32.642Z,63.50
2018-04-14T07:28:00.910Z,63.60
2018-04-14T07:30:28.481Z,71.60
2018-04-14T07:32:55.984Z,57.80
2018-04-14T07:35:23.624Z,59.63
2018-04-14T07:37:51.906Z,59.50
2018-04-14T07:40:20.177Z,69.93
2018-04-14T07:42:47.724Z,63.27
2018-04-14T07:45:16.715Z,64.13
2018-04-14T07:47:44.289Z,76.20
2018-04-14T07:50:11.819Z,65.30
2018-04-14T07:52:39.327Z,69.37
2018-04-14T07:55:06.841Z,67.10
2018-04-14T07:57:36.074Z,72.43
2018-04-14T08:00:04.407Z,79.00
2018-04-14T08:02:31.990Z,73.90
2018-04-14T08:04:59.492Z,78.03
2018-04-14T08:07:27.024Z,77.43
2018-04-14T08:09:54.848Z,81.23
2018-04-14T08:12:23.149Z,77.70
2018-04-14T08:14:50.666Z,72.13
2018-04-14T08:17:19.331Z,83.93
2018-04-14T08:19:46.919Z,78.80
2018-04-14T08:22:17.096Z,72.37
2018-04-14T08:24:44.665Z,81.77
2018-04-14T08:27:12.174Z,74.10
2018-04-14T08:29:40.964Z,87.90
2018-04-14T08:32:10.470Z,77.60
2018-04-14T08:34:38.027Z,86.10
2018-04-14T08:37:07.028Z,75.03
2018-04-14T08:39:34.637Z,87.37
2018-04-14T08:42:05.182Z,78.80
2018-04-14T08:44:32.731Z,71.33
2018-04-14T08:47:00.268Z,80.97
2018-04-14T08:49:28.398Z,80.37
2018-04-14T08:51:55.914Z,72.13
2018-04-14T08:54:23.404Z,72.70
2018-04-14T08:56:50.900Z,75.60
2018-04-14T08:59:18.402Z,76.97
2018-04-14T09:01:45.909Z,79.17
2018-04-14T09:04:13.394Z,81.23
2018-04-14T09:06:41.029Z,75.70
2018-04-14T09:09:08.647Z,89.77
2018-04-14T09:11:36.156Z,70.50
2018-04-14T09:14:03.646Z,85.67
2018-04-14T09:16:31.170Z,69.20
2018-04-14T09:18:59.476Z,74.73
2018-04-14T09:21:27.024Z,74.07
2018-04-14T09:23:54.518Z,61.37
2018-04-14T09:26:22.029Z,72.77
2018-04-14T09:28:50.304Z,68.20
2018-04-14T09:31:17.834Z,64.57
2018-04-14T09:33:45.508Z,70.57
2018-04-14T09:36:13.073Z,56.23
2018-04-14T09:38:40.620Z,61.27
2018-04-14T09:41:08.176Z,54.27
2018-04-14T09:43:35.669Z,58.60
2018-04-14T09:46:03.168Z,63.27
2018-04-14T09:48:31.442Z,49.77
2018-04-14T09:50:59.765Z,48.53
2018-04-14T09:53:27.997Z,53.77
2018-04-14T09:55:55.526Z,52.00
2018-04-14T09:58:23.024Z,47.50
2018-04-14T10:00:56.176Z,50.30
2018-04-14T10:03:23.718Z,49.23
2018-04-14T10:05:51.278Z,47.30
2018-04-14T10:08:18.784Z,40.20
2018-04-14T10:10:46.292Z,43.80
2018-04-14T10:13:14.573Z,38.50
2018-04-14T10:15:42.870Z,57.83
2018-04-14T10:18:12.054Z,42.80
2018-04-14T10:20:39.549Z,38.90
2018-04-14T10:23:07.159Z,39.03
2018-04-14T10:25:34.676Z,44.63
2018-04-14T10:28:02.217Z,43.77
2018-04-14T10:30:29.869Z,41.60
2018-04-14T10:32:58.220Z,42.27
2018-04-14T10:35:25.767Z,38.07
2018-04-14T10:37:53.805Z,40.60
2018-04-14T10:40:21.248Z,41.27
2018-04-14T10:42:49.532Z,38.53
2018-04-14T10:45:17.833Z,52.50
2018-04-14T10:47:45.396Z,34.07
2018-04-14T10:50:12.906Z,41.60
2018-04-14T10:52:40.767Z,34.40
2018-04-14T10:55:08.297Z,37.93
2018-04-14T10:57:35.848Z,39.50
2018-04-14T11:00:04.115Z,35.37
2018-04-14T11:02:32.381Z,38.37
2018-04-14T11:05:01.411Z,36.63
2018-04-14T11:07:28.930Z,38.30
2018-04-14T11:09:56.433Z,35.87
2018-04-14T11:12:24.704Z,33.97
2018-04-14T11:14:52.954Z,33.00
2018-04-14T11:17:20.468Z,36.40
2018-04-14T11:19:47.979Z,33.73
2018-04-14T11:22:15.511Z,38.23
2018-04-14T11:24:42.996Z,40.00
2018-04-14T11:27:10.506Z,41.63
2018-04-14T11:29:39.389Z,33.83
2018-04-14T11:32:07.695Z,35.33
2018-04-14T11:34:35.201Z,30.37
2018-04-14T11:37:02.707Z,33.83
2018-04-14T11:39:30.989Z,27.00
2018-04-14T11:41:59.307Z,34.53
2018-04-14T11:44:26.890Z,37.30
2018-04-14T11:46:55.070Z,29.80
2018-04-14T11:49:22.565Z,29.57
2018-04-14T11:51:50.854Z,30.33
2018-04-14T11:54:19.142Z,36.73
2018-04-14T11:56:46.726Z,33.67
2018-04-14T11:59:16.379Z,38.57
2018-04-14T12:01:48.259Z,33.73
2018-04-14T12:04:17.819Z,37.07
2018-04-14T12:06:45.438Z,33.30
2018-04-14T12:09:20.186Z,31.33
2018-04-14T12:11:48.470Z,38.00
2018-04-14T12:14:17.533Z,31.60
2018-04-14T12:16:45.941Z,37.00
2018-04-14T12:19:14.319Z,34.53
2018-04-14T12:21:42.612Z,38.97
2018-04-14T12:24:10.897Z,43.73
2018-04-14T12:26:38.451Z,41.27
2018-04-14T12:29:06.730Z,42.97
2018-04-14T12:31:35.007Z,46.00
2018-04-14T12:34:02.562Z,43.60
2018-04-14T12:36:30.253Z,45.83
2018-04-14T12:38:58.549Z,45.03
2018-04-14T12:41:26.059Z,50.93
2018-04-14T12:43:53.684Z,46.57
2018-04-14T12:46:21.841Z,49.13
2018-04-14T12:48:49.380Z,43.17
2018-04-14T12:51:17.666Z,53.23
2018-04-14T12:53:45.208Z,49.90
2018-04-14T12:56:13.530Z,48.47
2018-04-14T12:58:42.620Z,47.20
2018-04-14T13:01:11.948Z,42.07
2018-04-14T13:03:39.461Z,47.90
2018-04-14T13:06:07.028Z,44.03
2018-04-14T13:08:35.507Z,47.27
2018-04-14T13:11:04.200Z,41.97
2018-04-14T13:13:31.727Z,45.30
2018-04-14T13:15:59.294Z,42.00
2018-04-14T13:18:27.839Z,35.10
2018-04-14T13:20:55.506Z,41.40
2018-04-14T13:23:24.284Z,42.77
2018-04-14T13:25:51.800Z,39.43
2018-04-14T13:28:19.596Z,43.77
2018-04-14T13:30:47.460Z,36.00
2018-04-14T13:33:15.742Z,43.80
2018-04-14T13:35:43.280Z,33.67
2018-04-14T13:38:10.769Z,38.20
2018-04-14T13:40:38.284Z,40.20
2018-04-14T13:43:06.572Z,34.80
2018-04-14T13:45:34.099Z,40.30
2018-04-14T13:48:01.644Z,36.97
2018-04-14T13:50:30.154Z,41.40
2018-04-14T13:52:59.896Z,44.40
2018-04-14T13:55:28.911Z,39.47
2018-04-14T13:57:56.713Z,41.60
2018-04-14T14:00:25.058Z,37.73
2018-04-14T14:02:52.559Z,41.93
2018-04-14T14:08:03.520Z,41.33
2018-04-14T14:10:31.040Z,40.20
2018-04-14T14:12:58.525Z,39.57
2018-04-14T14:15:26.894Z,40.20
2018-04-14T14:17:54.464Z,43.43
2018-04-14T14:20:23.107Z,47.07
2018-04-14T14:22:50.605Z,43.23
2018-04-14T14:25:18.928Z,39.57
2018-04-14T14:27:46.412Z,44.20
2018-04-14T14:30:13.925Z,40.13
2018-04-14T14:32:42.196Z,42.67
2018-04-14T14:35:10.503Z,41.17
2018-04-14T14:37:38.001Z,42.47
2018-04-14T14:40:05.516Z,39.67
2018-04-14T14:42:33.809Z,40.37
2018-04-14T14:45:02.130Z,39.93
2018-04-14T14:47:35.454Z,44.23
2018-04-14T14:50:08.775Z,51.30
2018-04-14T14:52:37.028Z,39.20
2018-04-14T14:55:04.535Z,45.20
2018-04-14T14:57:32.035Z,42.77
2018-04-14T14:59:59.715Z,42.33
2018-04-14T15:02:27.232Z,53.63
2018-04-14T15:04:54.761Z,49.80
2018-04-14T15:07:22.307Z,48.73
2018-04-14T15:09:49.803Z,45.00
2018-04-14T15:12:18.102Z,46.47
2018-04-14T15:14:47.815Z,55.90
2018-04-14T15:17:15.410Z,48.20
2018-04-14T15:19:43.719Z,43.33
2018-04-14T15:22:11.251Z,44.30
2018-04-14T15:24:38.767Z,44.27
2018-04-14T15:27:07.078Z,42.37
2018-04-14T15:29:34.609Z,42.90
2018-04-14T15:32:02.914Z,41.70
2018-04-14T15:34:30.429Z,40.27
2018-04-14T15:36:58.531Z,45.40
2018-04-14T15:39:26.797Z,40.53
2018-04-14T15:41:54.313Z,40.97
2018-04-14T15:44:22.597Z,38.27
2018-04-14T15:46:50.104Z,47.93
2018-04-14T15:49:18.598Z,41.70
2018-04-14T15:51:46.897Z,40.67
2018-04-14T15:54:14.633Z,36.77
2018-04-14T15:56:43.114Z,39.03
2018-04-14T15:59:11.644Z,34.60
2018-04-14T16:01:39.159Z,36.67
2018-04-14T16:04:09.789Z,42.33
2018-04-14T16:06:34.944Z,42.70
2018-04-14T16:09:02.456Z,47.00
2018-04-14T16:11:30.020Z,58.20
2018-04-14T16:13:57.593Z,54.23
2018-04-14T16:16:25.112Z,52.70
2018-04-14T16:18:52.764Z,57.10
2018-04-14T16:21:21.137Z,52.77
2018-04-14T16:23:48.752Z,53.30
2018-04-14T16:26:16.258Z,49.23
2018-04-14T16:28:43.790Z,46.53
2018-04-14T16:31:11.311Z,46.40
2018-04-14T16:33:39.192Z,45.67
2018-04-14T16:36:06.712Z,48.97
2018-04-14T16:38:34.290Z,48.00
2018-04-14T16:41:02.590Z,45.10
2018-04-14T16:43:31.024Z,46.30
2018-04-14T16:45:58.519Z,44.70
2018-04-14T16:48:26.041Z,41.20
2018-04-14T16:50:53.746Z,39.43
2018-04-14T16:53:22.027Z,40.67
2018-04-14T16:55:49.660Z,42.67
2018-04-14T16:58:17.177Z,40.07
2018-04-14T17:00:45.439Z,41.50
2018-04-14T17:03:13.712Z,43.33
2018-04-14T17:05:41.220Z,39.10
2018-04-14T17:08:08.835Z,40.23
2018-04-14T17:10:36.346Z,43.30
2018-04-14T17:13:03.966Z,49.40
2018-04-14T17:15:31.461Z,44.67
2018-04-14T17:17:59.924Z,39.03
2018-04-14T17:20:27.431Z,46.93
2018-04-14T17:22:54.964Z,41.60
2018-04-14T17:25:23.327Z,44.57
2018-04-14T17:27:50.861Z,40.90
2018-04-14T17:30:19.209Z,42.20
2018-04-14T17:32:46.867Z,49.43
2018-04-14T17:35:14.378Z,44.23
2018-04-14T17:37:41.881Z,42.93
2018-04-14T17:40:10.926Z,41.67
2018-04-14T17:42:38.459Z,43.97
2018-04-14T17:45:06.805Z,41.20
2018-04-14T17:47:34.347Z,46.73
2018-04-14T17:50:01.890Z,50.23
2018-04-14T17:52:29.469Z,62.90
2018-04-14T17:54:56.989Z,66.87
2018-04-14T17:57:25.260Z,83.70
2018-04-14T17:59:53.651Z,88.50
2018-04-14T18:02:21.918Z,97.70
2018-04-14T18:04:50.228Z,85.07
2018-04-14T18:07:17.719Z,79.27
2018-04-14T18:09:45.234Z,73.20
2018-04-14T18:12:13.543Z,84.83
2018-04-14T18:14:41.878Z,241.23
2018-04-14T18:17:10.327Z,271.37
2018-04-14T18:19:37.862Z,270.60
2018-04-14T18:22:05.569Z,264.73
2018-04-14T18:24:33.097Z,154.03
2018-04-14T18:27:00.738Z,184.50
2018-04-14T18:29:29.071Z,170.93
2018-04-14T18:31:57.311Z,155.33
2018-04-14T18:34:25.972Z,141.73
2018-04-14T18:36:53.476Z,159.60
2018-04-14T18:39:21.560Z,159.97
2018-04-14T18:41:49.053Z,154.40
2018-04-14T18:44:16.600Z,181.03
2018-04-14T18:46:44.137Z,280.23
2018-04-14T18:49:11.685Z,310.60
2018-04-14T18:51:40.276Z,241.10
2018-04-14T18:54:08.568Z,215.37
2018-04-14T18:56:36.111Z,175.73
2018-04-14T18:59:04.505Z,132.33
2018-04-14T19:01:32.757Z,91.50
2018-04-14T19:04:00.257Z,87.33
2018-04-14T19:06:29.496Z,88.87
2018-04-14T19:08:57.065Z,74.43
2018-04-14T19:11:24.669Z,76.73
2018-04-14T19:13:53.087Z,82.03
2018-04-14T19:16:20.632Z,79.73
2018-04-14T19:18:48.911Z,82.90
2018-04-14T19:21:17.179Z,78.43
2018-04-14T19:23:48.341Z,80.73
2018-04-14T19:26:19.091Z,75.73
2018-04-14T19:28:46.617Z,74.53
2018-04-14T19:31:14.249Z,76.13
2018-04-14T19:33:42.155Z,71.83
2018-04-14T19:36:11.280Z,74.73
2018-04-14T19:38:40.377Z,71.10
2018-04-14T19:41:09.018Z,78.37
2018-04-14T19:43:37.755Z,78.40
2018-04-14T19:46:06.025Z,78.30
2018-04-14T19:48:33.555Z,81.07
2018-04-14T19:51:01.056Z,96.63
2018-04-14T19:53:28.728Z,73.20
2018-04-14T19:55:57.001Z,94.03
2018-04-14T19:58:24.497Z,60.30
2018-04-14T20:00:52.053Z,70.40
2018-04-14T20:03:19.571Z,69.37
2018-04-14T20:05:47.088Z,71.53
2018-04-14T20:08:14.613Z,65.37
2018-04-14T20:10:42.956Z,69.20
2018-04-14T20:13:10.981Z,82.13
2018-04-14T20:15:39.254Z,75.97
2018-04-14T20:18:06.782Z,74.97
2018-04-14T20:20:34.305Z,67.33
2018-04-14T20:23:02.760Z,69.50
2018-04-14T20:25:30.317Z,73.20
2018-04-14T20:27:59.340Z,110.70
2018-04-14T20:30:27.611Z,75.50
2018-04-14T20:32:55.106Z,81.93
2018-04-14T20:35:22.686Z,71.63
2018-04-14T20:37:50.213Z,72.90
2018-04-14T20:40:18.507Z,60.33
2018-04-14T20:42:46.853Z,69.10
2018-04-14T20:45:14.337Z,56.93
2018-04-14T20:47:42.631Z,79.40
2018-04-14T20:50:10.907Z,65.30
2018-04-14T20:52:39.227Z,75.93
2018-04-14T20:55:06.797Z,79.90
2018-04-14T20:57:34.346Z,59.43
2018-04-14T21:00:01.845Z,68.47
2018-04-14T21:02:29.435Z,75.50
2018-04-14T21:04:57.686Z,80.10
2018-04-14T21:07:25.290Z,77.53
2018-04-14T21:09:53.909Z,77.23
2018-04-14T21:12:21.409Z,87.87
2018-04-14T21:14:48.931Z,71.53
2018-04-14T21:17:16.449Z,75.57
2018-04-14T21:19:45.087Z,81.03
2018-04-14T21:22:15.789Z,77.53
2018-04-14T21:24:43.354Z,79.60
2018-04-14T21:27:11.624Z,79.50
2018-04-14T21:29:39.404Z,90.73
2018-04-14T21:32:07.674Z,95.60
2018-04-14T21:34:36.061Z,88.00
2018-04-14T21:37:03.576Z,81.93
2018-04-14T21:39:34.121Z,94.03
2018-04-14T21:42:02.934Z,92.43
2018-04-14T21:44:31.268Z,101.03
2018-04-14T21:46:58.798Z,94.60
2018-04-14T21:49:26.412Z,92.60
2018-04-14T21:51:53.921Z,94.80
2018-04-14T21:54:21.526Z,83.80
2018-04-14T21:56:50.122Z,98.53
2018-04-14T21:59:20.259Z,102.60
2018-04-14T22:01:47.977Z,90.57
2018-04-14T22:04:15.608Z,107.13
2018-04-14T22:06:43.126Z,106.07
2018-04-14T22:09:11.149Z,84.10
2018-04-14T22:11:38.684Z,101.47
2018-04-14T22:14:06.215Z,91.47
2018-04-14T22:16:34.484Z,95.23
2018-04-14T22:19:02.758Z,88.63
2018-04-14T22:21:30.287Z,95.77
2018-04-14T22:23:57.805Z,92.27
2018-04-14T22:26:26.118Z,94.87
2018-04-14T22:28:54.023Z,89.90
2018-04-14T22:31:22.673Z,97.43
2018-04-14T22:33:50.177Z,89.60
2018-04-14T22:36:17.671Z,106.70
2018-04-14T22:38:46.377Z,103.30
2018-04-14T22:41:13.885Z,87.27
2018-04-14T22:43:41.418Z,102.80
2018-04-14T22:46:08.939Z,112.73
2018-04-14T22:48:37.278Z,101.13
2018-04-14T22:51:05.808Z,109.17
2018-04-14T22:53:35.093Z,95.30
2018-04-14T22:56:02.731Z,110.47
2018-04-14T22:58:30.251Z,96.43
2018-04-14T23:00:58.535Z,98.27
2018-04-14T23:03:26.809Z,106.20
2018-04-14T23:05:55.081Z,108.90
2018-04-14T23:08:22.614Z,105.40
2018-04-14T23:10:50.115Z,101.40
2018-04-14T23:13:18.385Z,111.97
2018-04-14T23:15:45.905Z,96.57
2018-04-14T23:18:13.469Z,107.50
2018-04-14T23:20:41.815Z,112.73
2018-04-14T23:23:10.124Z,107.63
2018-04-14T23:25:37.616Z,106.40
2018-04-14T23:28:05.782Z,116.63
2018-04-14T23:30:33.278Z,105.33
2018-04-14T23:33:00.791Z,101.53
2018-04-14T23:35:28.283Z,106.93
2018-04-14T23:37:55.788Z,112.27
2018-04-14T23:40:24.052Z,100.93
2018-04-14T23:42:52.332Z,111.03
2018-04-14T23:45:20.600Z,103.63
2018-04-14T23:47:48.127Z,106.63
2018-04-14T23:50:15.625Z,113.97
2018-04-14T23:52:43.900Z,120.03
2018-04-14T23:55:11.406Z,115.00
2018-04-14T23:57:39.690Z,145.43
